sensor_id;sensor_type;location;lat;lon;timestamp;P1;durP1;ratioP1;P2;durP2;ratioP2
33459;SDS011;19795;53.160;6.612;2022-09-27T03:42:44;237.38;;;222.75;;
33459;SDS011;19795;53.160;6.612;2022-09-27T03:45:10;226.55;;;212.32;;
33459;SDS011;19795;53.160;6.612;2022-09-27T03:50:11;243.35;;;228.35;;
33459;SDS011;19795;53.160;6.612;2022-09-27T03:52:36;245.00;;;230.40;;
33459;SDS011;19795;53.160;6.612;2022-09-27T03:55:02;245.55;;;230.68;;
33459;SDS011;19795;53.160;6.612;2022-09-27T03:57:28;242.55;;;227.55;;
33459;SDS011;19795;53.160;6.612;2022-09-27T03:59:55;236.77;;;222.48;;
33459;SDS011;19795;53.160;6.612;2022-09-27T04:02:23;240.82;;;226.57;;
33459;SDS011;19795;53.160;6.612;2022-09-27T04:04:50;234.38;;;220.13;;
33459;SDS011;19795;53.160;6.612;2022-09-27T04:07:15;236.70;;;222.35;;
33459;SDS011;19795;53.160;6.612;2022-09-27T04:09:41;238.50;;;224.30;;
33459;SDS011;19795;53.160;6.612;2022-09-27T04:12:08;225.73;;;211.48;;
33459;SDS011;19795;53.160;6.612;2022-09-27T04:14:34;236.85;;;222.23;;
33459;SDS011;19795;53.160;6.612;2022-09-27T04:16:59;233.25;;;218.85;;
33459;SDS011;19795;53.160;6.612;2022-09-27T04:19:25;235.32;;;220.13;;
33459;SDS011;19795;53.160;6.612;2022-09-27T04:21:51;234.60;;;219.88;;
33459;SDS011;19795;53.160;6.612;2022-09-27T04:24:17;237.98;;;223.18;;
33459;SDS011;19795;53.160;6.612;2022-09-27T04:26:42;233.43;;;218.77;;
33459;SDS011;19795;53.160;6.612;2022-09-27T04:29:08;231.65;;;216.38;;
33459;SDS011;19795;53.160;6.612;2022-09-27T04:31:34;229.40;;;214.73;;
33459;SDS011;19795;53.160;6.612;2022-09-27T04:34:02;234.30;;;219.40;;
33459;SDS011;19795;53.160;6.612;2022-09-27T04:36:28;226.10;;;211.50;;
33459;SDS011;19795;53.160;6.612;2022-09-27T04:38:55;224.90;;;210.88;;
33459;SDS011;19795;53.160;6.612;2022-09-27T04:41:23;229.25;;;214.98;;
33459;SDS011;19795;53.160;6.612;2022-09-27T04:43:50;225.85;;;211.60;;
33459;SDS011;19795;53.160;6.612;2022-09-27T04:46:16;226.57;;;212.38;;
33459;SDS011;19795;53.160;6.612;2022-09-27T04:48:42;225.57;;;211.18;;
33459;SDS011;19795;53.160;6.612;2022-09-27T04:51:08;223.13;;;209.23;;
33459;SDS011;19795;53.160;6.612;2022-09-27T04:53:34;221.23;;;208.13;;
33459;SDS011;19795;53.160;6.612;2022-09-27T04:56:00;218.27;;;204.98;;
33459;SDS011;19795;53.160;6.612;2022-09-27T04:58:29;228.73;;;215.80;;
33459;SDS011;19795;53.160;6.612;2022-09-27T05:00:57;229.73;;;216.98;;
33459;SDS011;19795;53.160;6.612;2022-09-27T05:03:24;217.82;;;205.77;;
33459;SDS011;19795;53.160;6.612;2022-09-27T05:05:50;217.93;;;205.70;;
33459;SDS011;19795;53.160;6.612;2022-09-27T05:08:16;216.27;;;203.63;;
33459;SDS011;19795;53.160;6.612;2022-09-27T05:10:41;211.35;;;199.35;;
33459;SDS011;19795;53.160;6.612;2022-09-27T05:13:07;215.68;;;203.75;;
33459;SDS011;19795;53.160;6.612;2022-09-27T05:15:33;206.70;;;195.27;;
33459;SDS011;19795;53.160;6.612;2022-09-27T05:18:00;207.80;;;196.57;;
33459;SDS011;19795;53.160;6.612;2022-09-27T05:20:25;188.05;;;178.02;;
33459;SDS011;19795;53.160;6.612;2022-09-27T05:22:51;176.05;;;166.90;;
33459;SDS011;19795;53.160;6.612;2022-09-27T05:25:17;179.20;;;169.93;;
33459;SDS011;19795;53.160;6.612;2022-09-27T05:27:43;174.07;;;165.00;;
33459;SDS011;19795;53.160;6.612;2022-09-27T05:30:09;176.90;;;167.90;;
33459;SDS011;19795;53.160;6.612;2022-09-27T05:32:37;167.85;;;159.38;;
33459;SDS011;19795;53.160;6.612;2022-09-27T05:35:07;178.65;;;169.40;;
33459;SDS011;19795;53.160;6.612;2022-09-27T05:37:33;176.20;;;167.50;;
33459;SDS011;19795;53.160;6.612;2022-09-27T05:40:00;161.60;;;153.27;;
33459;SDS011;19795;53.160;6.612;2022-09-27T05:42:25;160.93;;;152.82;;
33459;SDS011;19795;53.160;6.612;2022-09-27T05:44:51;160.73;;;153.00;;
33459;SDS011;19795;53.160;6.612;2022-09-27T05:47:17;159.27;;;151.85;;
33459;SDS011;19795;53.160;6.612;2022-09-27T05:49:43;153.50;;;146.20;;
33459;SDS011;19795;53.160;6.612;2022-09-27T05:52:08;158.75;;;151.10;;
33459;SDS011;19795;53.160;6.612;2022-09-27T05:54:34;159.65;;;151.90;;
33459;SDS011;19795;53.160;6.612;2022-09-27T05:57:00;158.25;;;150.25;;
33459;SDS011;19795;53.160;6.612;2022-09-27T05:59:25;156.25;;;148.35;;
33459;SDS011;19795;53.160;6.612;2022-09-27T06:01:52;160.07;;;152.23;;
33459;SDS011;19795;53.160;6.612;2022-09-27T06:04:18;159.75;;;152.00;;
33459;SDS011;19795;53.160;6.612;2022-09-27T06:06:45;157.55;;;149.77;;
33459;SDS011;19795;53.160;6.612;2022-09-27T06:09:12;162.02;;;154.18;;
33459;SDS011;19795;53.160;6.612;2022-09-27T06:11:39;161.32;;;153.07;;
33459;SDS011;19795;53.160;6.612;2022-09-27T06:14:05;151.80;;;144.55;;
33459;SDS011;19795;53.160;6.612;2022-09-27T06:16:31;156.07;;;148.48;;
33459;SDS011;19795;53.160;6.612;2022-09-27T06:18:57;154.05;;;146.75;;
33459;SDS011;19795;53.160;6.612;2022-09-27T06:21:22;151.73;;;144.48;;
33459;SDS011;19795;53.160;6.612;2022-09-27T06:23:48;153.95;;;146.73;;
33459;SDS011;19795;53.160;6.612;2022-09-27T06:26:14;150.20;;;143.10;;
33459;SDS011;19795;53.160;6.612;2022-09-27T06:28:40;151.85;;;144.38;;
33459;SDS011;19795;53.160;6.612;2022-09-27T06:31:06;156.10;;;148.65;;
33459;SDS011;19795;53.160;6.612;2022-09-27T06:33:33;151.70;;;144.32;;
33459;SDS011;19795;53.160;6.612;2022-09-27T06:36:05;147.20;;;140.02;;
33459;SDS011;19795;53.160;6.612;2022-09-27T06:38:31;151.75;;;144.63;;
33459;SDS011;19795;53.160;6.612;2022-09-27T06:41:00;146.40;;;139.18;;
33459;SDS011;19795;53.160;6.612;2022-09-27T06:43:26;155.32;;;147.88;;
33459;SDS011;19795;53.160;6.612;2022-09-27T06:45:53;153.20;;;145.80;;
33459;SDS011;19795;53.160;6.612;2022-09-27T06:48:19;155.10;;;147.43;;
33459;SDS011;19795;53.160;6.612;2022-09-27T06:50:45;152.63;;;144.73;;
33459;SDS011;19795;53.160;6.612;2022-09-27T06:53:12;156.02;;;148.23;;
33459;SDS011;19795;53.160;6.612;2022-09-27T06:55:39;152.50;;;144.57;;
33459;SDS011;19795;53.160;6.612;2022-09-27T06:58:05;147.52;;;139.82;;
33459;SDS011;19795;53.160;6.612;2022-09-27T07:00:50;139.38;;;132.80;;
33459;SDS011;19795;53.160;6.612;2022-09-27T07:03:17;124.43;;;118.53;;
33459;SDS011;19795;53.160;6.612;2022-09-27T07:05:54;120.50;;;114.90;;
33459;SDS011;19795;53.160;6.612;2022-09-27T07:08:21;117.93;;;112.50;;
33459;SDS011;19795;53.160;6.612;2022-09-27T07:10:49;122.75;;;116.88;;
33459;SDS011;19795;53.160;6.612;2022-09-27T07:13:14;123.35;;;117.57;;
33459;SDS011;19795;53.160;6.612;2022-09-27T07:15:40;119.93;;;113.90;;
33459;SDS011;19795;53.160;6.612;2022-09-27T07:18:06;124.63;;;118.30;;
33459;SDS011;19795;53.160;6.612;2022-09-27T07:20:35;125.15;;;118.93;;
33459;SDS011;19795;53.160;6.612;2022-09-27T07:23:02;123.03;;;117.10;;
33459;SDS011;19795;53.160;6.612;2022-09-27T07:25:29;108.63;;;103.38;;
33459;SDS011;19795;53.160;6.612;2022-09-27T07:27:59;105.57;;;100.68;;
33459;SDS011;19795;53.160;6.612;2022-09-27T07:30:26;78.53;;;74.75;;
33459;SDS011;19795;53.160;6.612;2022-09-27T07:32:56;59.85;;;56.97;;
33459;SDS011;19795;53.160;6.612;2022-09-27T07:35:25;55.42;;;52.65;;
33459;SDS011;19795;53.160;6.612;2022-09-27T07:37:52;44.38;;;41.95;;
33459;SDS011;19795;53.160;6.612;2022-09-27T07:40:19;30.48;;;28.80;;
33459;SDS011;19795;53.160;6.612;2022-09-27T07:42:44;17.85;;;16.85;;
33459;SDS011;19795;53.160;6.612;2022-09-27T07:45:10;8.40;;;7.70;;
33459;SDS011;19795;53.160;6.612;2022-09-27T07:47:37;5.22;;;3.25;;
33459;SDS011;19795;53.160;6.612;2022-09-27T07:50:07;1.70;;;1.20;;
33459;SDS011;19795;53.160;6.612;2022-09-27T07:52:40;1.40;;;0.80;;
33459;SDS011;19795;53.160;6.612;2022-09-27T07:55:07;3.10;;;0.52;;
33459;SDS011;19795;53.160;6.612;2022-09-27T07:57:34;2.17;;;0.57;;
33459;SDS011;19795;53.160;6.612;2022-09-27T08:00:01;1.92;;;0.40;;
33459;SDS011;19795;53.160;6.612;2022-09-27T08:02:31;5.13;;;0.70;;
33459;SDS011;19795;53.160;6.612;2022-09-27T08:04:58;2.20;;;0.40;;
33459;SDS011;19795;53.160;6.612;2022-09-27T08:07:24;4.00;;;1.00;;
33459;SDS011;19795;53.160;6.612;2022-09-27T08:09:50;3.63;;;0.60;;
33459;SDS011;19795;53.160;6.612;2022-09-27T08:12:16;5.25;;;0.73;;
33459;SDS011;19795;53.160;6.612;2022-09-27T08:14:41;4.07;;;0.63;;
33459;SDS011;19795;53.160;6.612;2022-09-27T08:17:11;5.05;;;1.23;;
33459;SDS011;19795;53.160;6.612;2022-09-27T08:19:37;1.55;;;0.90;;
33459;SDS011;19795;53.160;6.612;2022-09-27T08:22:03;1.85;;;0.68;;
33459;SDS011;19795;53.160;6.612;2022-09-27T08:24:29;1.60;;;0.43;;
33459;SDS011;19795;53.160;6.612;2022-09-27T08:26:54;2.47;;;0.80;;
33459;SDS011;19795;53.160;6.612;2022-09-27T08:29:20;3.17;;;1.00;;
33459;SDS011;19795;53.160;6.612;2022-09-27T08:31:46;1.67;;;1.23;;
33459;SDS011;19795;53.160;6.612;2022-09-27T08:34:14;1.92;;;1.60;;
33459;SDS011;19795;53.160;6.612;2022-09-27T08:36:41;2.55;;;2.30;;
33459;SDS011;19795;53.160;6.612;2022-09-27T08:39:07;3.50;;;2.88;;
33459;SDS011;19795;53.160;6.612;2022-09-27T08:41:35;2.30;;;2.10;;
33459;SDS011;19795;53.160;6.612;2022-09-27T08:46:45;2.00;;;1.10;;
33459;SDS011;19795;53.160;6.612;2022-09-27T08:50:14;1.50;;;0.77;;
33459;SDS011;19795;53.160;6.612;2022-09-27T08:53:06;2.22;;;0.52;;
33459;SDS011;19795;53.160;6.612;2022-09-27T08:55:53;0.85;;;0.30;;
33459;SDS011;19795;53.160;6.612;2022-09-27T08:58:28;1.15;;;0.30;;
33459;SDS011;19795;53.160;6.612;2022-09-27T09:01:00;1.63;;;0.50;;
33459;SDS011;19795;53.160;6.612;2022-09-27T09:03:29;3.80;;;0.55;;
33459;SDS011;19795;53.160;6.612;2022-09-27T09:11:20;2.00;;;0.50;;
33459;SDS011;19795;53.160;6.612;2022-09-27T09:33:27;2.10;;;0.50;;
33459;SDS011;19795;53.160;6.612;2022-09-27T09:38:53;1.77;;;0.50;;
33459;SDS011;19795;53.160;6.612;2022-09-27T09:44:23;1.38;;;0.60;;
33459;SDS011;19795;53.160;6.612;2022-09-27T09:46:55;4.03;;;0.60;;
33459;SDS011;19795;53.160;6.612;2022-09-27T09:49:28;3.05;;;0.40;;
33459;SDS011;19795;53.160;6.612;2022-09-27T09:52:06;0.60;;;0.30;;
33459;SDS011;19795;53.160;6.612;2022-09-27T09:54:42;0.95;;;0.35;;
33459;SDS011;19795;53.160;6.612;2022-09-27T09:57:37;3.55;;;1.42;;
33459;SDS011;19795;53.160;6.612;2022-09-27T10:00:14;0.30;;;0.30;;
33459;SDS011;19795;53.160;6.612;2022-09-27T10:02:43;1.40;;;0.60;;
33459;SDS011;19795;53.160;6.612;2022-09-27T10:05:16;4.35;;;3.33;;
33459;SDS011;19795;53.160;6.612;2022-09-27T10:07:44;3.10;;;1.30;;
33459;SDS011;19795;53.160;6.612;2022-09-27T10:10:14;1.98;;;0.90;;
33459;SDS011;19795;53.160;6.612;2022-09-27T10:12:42;1.50;;;0.90;;
33459;SDS011;19795;53.160;6.612;2022-09-27T10:15:27;2.60;;;1.20;;
33459;SDS011;19795;53.160;6.612;2022-09-27T10:17:57;1.15;;;0.70;;
33459;SDS011;19795;53.160;6.612;2022-09-27T10:20:44;1.00;;;0.30;;
33459;SDS011;19795;53.160;6.612;2022-09-27T10:23:16;2.33;;;1.95;;
33459;SDS011;19795;53.160;6.612;2022-09-27T10:25:58;2.20;;;0.40;;
33459;SDS011;19795;53.160;6.612;2022-09-27T10:28:36;0.73;;;0.40;;
33459;SDS011;19795;53.160;6.612;2022-09-27T10:31:07;1.95;;;0.45;;
33459;SDS011;19795;53.160;6.612;2022-09-27T10:33:50;0.30;;;0.30;;
33459;SDS011;19795;53.160;6.612;2022-09-27T10:36:26;1.08;;;0.43;;
33459;SDS011;19795;53.160;6.612;2022-09-27T10:38:57;1.33;;;0.40;;
33459;SDS011;19795;53.160;6.612;2022-09-27T10:46:40;1.77;;;0.40;;
33459;SDS011;19795;53.160;6.612;2022-09-27T10:51:45;2.50;;;0.45;;
33459;SDS011;19795;53.160;6.612;2022-09-27T10:54:19;6.28;;;1.90;;
33459;SDS011;19795;53.160;6.612;2022-09-27T10:56:54;4.05;;;0.50;;
33459;SDS011;19795;53.160;6.612;2022-09-27T10:59:23;0.60;;;0.20;;
33459;SDS011;19795;53.160;6.612;2022-09-27T11:01:51;1.60;;;0.30;;
33459;SDS011;19795;53.160;6.612;2022-09-27T11:04:22;1.60;;;0.10;;
33459;SDS011;19795;53.160;6.612;2022-09-27T11:06:49;0.20;;;0.10;;
33459;SDS011;19795;53.160;6.612;2022-09-27T11:09:19;2.03;;;0.20;;
33459;SDS011;19795;53.160;6.612;2022-09-27T11:14:37;1.55;;;0.20;;
33459;SDS011;19795;53.160;6.612;2022-09-27T11:17:14;1.25;;;0.30;;
33459;SDS011;19795;53.160;6.612;2022-09-27T11:25:16;2.90;;;0.30;;
33459;SDS011;19795;53.160;6.612;2022-09-27T11:30:38;1.52;;;0.20;;
33459;SDS011;19795;53.160;6.612;2022-09-27T11:48:11;3.97;;;1.10;;
33459;SDS011;19795;53.160;6.612;2022-09-27T11:50:49;3.83;;;2.20;;
33459;SDS011;19795;53.160;6.612;2022-09-27T12:07:08;2.55;;;0.30;;
33459;SDS011;19795;53.160;6.612;2022-09-27T12:09:56;2.05;;;0.50;;
33459;SDS011;19795;53.160;6.612;2022-09-27T12:12:28;5.63;;;1.55;;
33459;SDS011;19795;53.160;6.612;2022-09-27T12:15:04;1.85;;;0.68;;
33459;SDS011;19795;53.160;6.612;2022-09-27T12:17:44;1.88;;;0.20;;
33459;SDS011;19795;53.160;6.612;2022-09-27T12:20:22;1.15;;;0.13;;
33459;SDS011;19795;53.160;6.612;2022-09-27T12:25:54;0.57;;;0.20;;
33459;SDS011;19795;53.160;6.612;2022-09-27T12:36:42;1.13;;;0.38;;
33459;SDS011;19795;53.160;6.612;2022-09-27T12:44:57;1.45;;;0.32;;
33459;SDS011;19795;53.160;6.612;2022-09-27T12:47:39;1.58;;;0.50;;
33459;SDS011;19795;53.160;6.612;2022-09-27T12:56:15;3.33;;;0.60;;
33459;SDS011;19795;53.160;6.612;2022-09-27T13:07:12;1.27;;;0.32;;
33459;SDS011;19795;53.160;6.612;2022-09-27T13:12:49;1.70;;;0.95;;
33459;SDS011;19795;53.160;6.612;2022-09-27T13:15:25;2.20;;;0.70;;
33459;SDS011;19795;53.160;6.612;2022-09-27T13:17:55;3.67;;;0.90;;
33459;SDS011;19795;53.160;6.612;2022-09-27T13:22:55;1.73;;;0.20;;
33459;SDS011;19795;53.160;6.612;2022-09-27T13:30:56;2.97;;;1.77;;
33459;SDS011;19795;53.160;6.612;2022-09-27T13:33:45;2.03;;;1.02;;
33459;SDS011;19795;53.160;6.612;2022-09-27T13:41:40;4.68;;;1.10;;
33459;SDS011;19795;53.160;6.612;2022-09-27T13:46:49;4.03;;;1.75;;
33459;SDS011;19795;53.160;6.612;2022-09-27T13:54:53;2.28;;;0.98;;
33459;SDS011;19795;53.160;6.612;2022-09-27T14:00:05;3.05;;;0.32;;
33459;SDS011;19795;53.160;6.612;2022-09-27T14:02:37;1.92;;;0.50;;
33459;SDS011;19795;53.160;6.612;2022-09-27T14:05:10;1.23;;;0.55;;
33459;SDS011;19795;53.160;6.612;2022-09-27T14:07:43;3.88;;;0.50;;
33459;SDS011;19795;53.160;6.612;2022-09-27T14:10:17;4.38;;;0.90;;
33459;SDS011;19795;53.160;6.612;2022-09-27T14:12:46;1.88;;;0.98;;
33459;SDS011;19795;53.160;6.612;2022-09-27T14:15:24;1.70;;;0.98;;
33459;SDS011;19795;53.160;6.612;2022-09-27T14:17:52;1.30;;;1.20;;
33459;SDS011;19795;53.160;6.612;2022-09-27T14:20:32;2.95;;;1.30;;
33459;SDS011;19795;53.160;6.612;2022-09-27T14:23:01;4.32;;;1.80;;
33459;SDS011;19795;53.160;6.612;2022-09-27T14:25:27;4.82;;;3.20;;
33459;SDS011;19795;53.160;6.612;2022-09-27T14:27:53;2.42;;;1.48;;
33459;SDS011;19795;53.160;6.612;2022-09-27T14:30:23;3.08;;;1.08;;
33459;SDS011;19795;53.160;6.612;2022-09-27T14:32:52;0.82;;;0.73;;
33459;SDS011;19795;53.160;6.612;2022-09-27T14:35:23;1.35;;;0.55;;
33459;SDS011;19795;53.160;6.612;2022-09-27T14:38:09;1.23;;;0.60;;
33459;SDS011;19795;53.160;6.612;2022-09-27T14:41:00;2.08;;;0.85;;
33459;SDS011;19795;53.160;6.612;2022-09-27T14:43:24;1.98;;;0.90;;
33459;SDS011;19795;53.160;6.612;2022-09-27T14:45:52;1.50;;;0.60;;
33459;SDS011;19795;53.160;6.612;2022-09-27T14:48:29;3.75;;;0.75;;
33459;SDS011;19795;53.160;6.612;2022-09-27T14:51:01;2.15;;;1.05;;
33459;SDS011;19795;53.160;6.612;2022-09-27T14:53:33;1.15;;;0.40;;
33459;SDS011;19795;53.160;6.612;2022-09-27T14:56:10;2.13;;;0.57;;
33459;SDS011;19795;53.160;6.612;2022-09-27T14:58:55;1.60;;;0.60;;
33459;SDS011;19795;53.160;6.612;2022-09-27T15:01:35;2.45;;;0.50;;
33459;SDS011;19795;53.160;6.612;2022-09-27T15:04:04;3.88;;;0.50;;
33459;SDS011;19795;53.160;6.612;2022-09-27T15:06:34;2.75;;;0.50;;
33459;SDS011;19795;53.160;6.612;2022-09-27T15:09:01;1.98;;;0.52;;
33459;SDS011;19795;53.160;6.612;2022-09-27T15:11:29;3.35;;;0.63;;
33459;SDS011;19795;53.160;6.612;2022-09-27T15:13:57;2.70;;;0.50;;
33459;SDS011;19795;53.160;6.612;2022-09-27T15:16:25;5.00;;;0.73;;
33459;SDS011;19795;53.160;6.612;2022-09-27T15:19:02;3.72;;;0.52;;
33459;SDS011;19795;53.160;6.612;2022-09-27T15:21:37;2.65;;;0.70;;
33459;SDS011;19795;53.160;6.612;2022-09-27T15:24:03;1.40;;;0.65;;
33459;SDS011;19795;53.160;6.612;2022-09-27T15:29:00;1.63;;;0.70;;
33459;SDS011;19795;53.160;6.612;2022-09-27T15:31:27;4.85;;;0.88;;
33459;SDS011;19795;53.160;6.612;2022-09-27T15:33:55;7.63;;;1.00;;
33459;SDS011;19795;53.160;6.612;2022-09-27T15:37:03;2.35;;;0.80;;
33459;SDS011;19795;53.160;6.612;2022-09-27T15:39:11;1.77;;;0.90;;
33459;SDS011;19795;53.160;6.612;2022-09-27T15:44:43;5.32;;;1.10;;
33459;SDS011;19795;53.160;6.612;2022-09-27T15:49:56;2.28;;;1.00;;
33459;SDS011;19795;53.160;6.612;2022-09-27T15:52:42;4.07;;;1.02;;
33459;SDS011;19795;53.160;6.612;2022-09-27T15:55:11;3.33;;;1.20;;
33459;SDS011;19795;53.160;6.612;2022-09-27T15:57:37;1.40;;;1.00;;
33459;SDS011;19795;53.160;6.612;2022-09-27T16:00:04;2.55;;;1.40;;
33459;SDS011;19795;53.160;6.612;2022-09-27T16:02:31;2.67;;;1.13;;
33459;SDS011;19795;53.160;6.612;2022-09-27T16:04:57;1.88;;;1.25;;
33459;SDS011;19795;53.160;6.612;2022-09-27T16:07:22;3.08;;;1.17;;
33459;SDS011;19795;53.160;6.612;2022-09-27T16:09:48;2.53;;;1.40;;
33459;SDS011;19795;53.160;6.612;2022-09-27T16:12:16;3.55;;;1.33;;
33459;SDS011;19795;53.160;6.612;2022-09-27T16:14:41;5.85;;;1.27;;
33459;SDS011;19795;53.160;6.612;2022-09-27T16:17:07;1.50;;;1.40;;
33459;SDS011;19795;53.160;6.612;2022-09-27T16:19:33;2.70;;;1.77;;
33459;SDS011;19795;53.160;6.612;2022-09-27T16:21:59;4.22;;;1.80;;
33459;SDS011;19795;53.160;6.612;2022-09-27T16:24:27;4.50;;;1.92;;
33459;SDS011;19795;53.160;6.612;2022-09-27T16:26:53;3.28;;;2.00;;
33459;SDS011;19795;53.160;6.612;2022-09-27T16:29:19;2.97;;;2.13;;
33459;SDS011;19795;53.160;6.612;2022-09-27T16:31:45;4.60;;;2.60;;
33459;SDS011;19795;53.160;6.612;2022-09-27T16:34:11;5.07;;;3.08;;
33459;SDS011;19795;53.160;6.612;2022-09-27T16:36:37;4.63;;;3.05;;
33459;SDS011;19795;53.160;6.612;2022-09-27T16:39:05;7.20;;;3.42;;
33459;SDS011;19795;53.160;6.612;2022-09-27T16:41:31;5.13;;;3.20;;
33459;SDS011;19795;53.160;6.612;2022-09-27T16:43:58;5.28;;;3.70;;
33459;SDS011;19795;53.160;6.612;2022-09-27T16:46:29;5.13;;;3.78;;
33459;SDS011;19795;53.160;6.612;2022-09-27T16:48:58;4.03;;;3.72;;
33459;SDS011;19795;53.160;6.612;2022-09-27T16:51:24;5.45;;;4.15;;
33459;SDS011;19795;53.160;6.612;2022-09-27T16:54:08;5.65;;;5.15;;
33459;SDS011;19795;53.160;6.612;2022-09-27T16:56:34;8.05;;;7.20;;
33459;SDS011;19795;53.160;6.612;2022-09-27T16:59:00;8.15;;;7.53;;
33459;SDS011;19795;53.160;6.612;2022-09-27T17:01:31;11.05;;;10.05;;
33459;SDS011;19795;53.160;6.612;2022-09-27T17:03:57;10.45;;;9.75;;
33459;SDS011;19795;53.160;6.612;2022-09-27T17:06:27;8.85;;;8.25;;
33459;SDS011;19795;53.160;6.612;2022-09-27T17:08:53;8.35;;;7.85;;
33459;SDS011;19795;53.160;6.612;2022-09-27T17:11:20;10.20;;;9.40;;
33459;SDS011;19795;53.160;6.612;2022-09-27T17:13:45;10.68;;;9.73;;
33459;SDS011;19795;53.160;6.612;2022-09-27T17:16:13;12.20;;;11.30;;
33459;SDS011;19795;53.160;6.612;2022-09-27T17:18:39;11.93;;;10.85;;
33459;SDS011;19795;53.160;6.612;2022-09-27T17:21:06;9.50;;;9.00;;
33459;SDS011;19795;53.160;6.612;2022-09-27T17:23:33;11.10;;;10.40;;
33459;SDS011;19795;53.160;6.612;2022-09-27T17:26:19;9.73;;;9.07;;
33459;SDS011;19795;53.160;6.612;2022-09-27T17:28:46;10.02;;;9.07;;
33459;SDS011;19795;53.160;6.612;2022-09-27T17:31:14;10.13;;;9.43;;
33459;SDS011;19795;53.160;6.612;2022-09-27T17:33:43;10.68;;;9.98;;
33459;SDS011;19795;53.160;6.612;2022-09-27T17:36:13;11.07;;;10.38;;
33459;SDS011;19795;53.160;6.612;2022-09-27T17:38:41;13.98;;;13.00;;
33459;SDS011;19795;53.160;6.612;2022-09-27T17:41:08;14.43;;;13.60;;
33459;SDS011;19795;53.160;6.612;2022-09-27T17:43:39;16.80;;;15.80;;
33459;SDS011;19795;53.160;6.612;2022-09-27T17:46:16;19.90;;;18.73;;
33459;SDS011;19795;53.160;6.612;2022-09-27T17:48:43;23.90;;;22.42;;
33459;SDS011;19795;53.160;6.612;2022-09-27T17:51:28;23.27;;;21.73;;
33459;SDS011;19795;53.160;6.612;2022-09-27T17:53:55;23.60;;;22.33;;
33459;SDS011;19795;53.160;6.612;2022-09-27T17:56:21;24.88;;;23.58;;
33459;SDS011;19795;53.160;6.612;2022-09-27T17:58:51;27.92;;;26.33;;
33459;SDS011;19795;53.160;6.612;2022-09-27T18:01:18;29.98;;;28.15;;
33459;SDS011;19795;53.160;6.612;2022-09-27T18:03:45;29.42;;;27.95;;
33459;SDS011;19795;53.160;6.612;2022-09-27T18:06:12;32.15;;;30.27;;
33459;SDS011;19795;53.160;6.612;2022-09-27T18:08:40;34.45;;;32.65;;
33459;SDS011;19795;53.160;6.612;2022-09-27T18:11:10;34.72;;;32.95;;
33459;SDS011;19795;53.160;6.612;2022-09-27T18:13:38;38.35;;;36.45;;
33459;SDS011;19795;53.160;6.612;2022-09-27T18:16:12;44.30;;;42.10;;
33459;SDS011;19795;53.160;6.612;2022-09-27T18:18:39;48.10;;;45.60;;
33459;SDS011;19795;53.160;6.612;2022-09-27T18:23:35;53.85;;;50.92;;
33459;SDS011;19795;53.160;6.612;2022-09-27T18:26:01;61.33;;;58.30;;
33459;SDS011;19795;53.160;6.612;2022-09-27T18:28:29;60.00;;;56.85;;
33459;SDS011;19795;53.160;6.612;2022-09-27T18:30:59;66.50;;;63.10;;
33459;SDS011;19795;53.160;6.612;2022-09-27T18:33:26;68.50;;;65.22;;
33459;SDS011;19795;53.160;6.612;2022-09-27T18:35:52;78.18;;;74.57;;
33459;SDS011;19795;53.160;6.612;2022-09-27T18:38:18;81.10;;;77.28;;
33459;SDS011;19795;53.160;6.612;2022-09-27T18:40:43;88.45;;;84.10;;
33459;SDS011;19795;53.160;6.612;2022-09-27T18:43:09;91.50;;;87.20;;
33459;SDS011;19795;53.160;6.612;2022-09-27T18:45:35;93.45;;;89.05;;
33459;SDS011;19795;53.160;6.612;2022-09-27T18:48:02;88.50;;;84.25;;
33459;SDS011;19795;53.160;6.612;2022-09-27T18:50:28;93.47;;;88.90;;
33459;SDS011;19795;53.160;6.612;2022-09-27T18:52:54;96.15;;;91.60;;
33459;SDS011;19795;53.160;6.612;2022-09-27T18:55:19;102.88;;;98.00;;
33459;SDS011;19795;53.160;6.612;2022-09-27T18:57:45;106.82;;;101.90;;
33459;SDS011;19795;53.160;6.612;2022-09-27T19:00:11;106.80;;;101.63;;
33459;SDS011;19795;53.160;6.612;2022-09-27T19:02:37;106.40;;;101.30;;
33459;SDS011;19795;53.160;6.612;2022-09-27T19:05:03;102.35;;;97.55;;
33459;SDS011;19795;53.160;6.612;2022-09-27T19:07:29;100.57;;;95.97;;
33459;SDS011;19795;53.160;6.612;2022-09-27T19:09:56;100.95;;;96.25;;
